MFDO2: Hudson Lake

Data processed at Fri Mar 09 2018 23:11


All information presented herein is the property of the government of the United States of America and may be revised or deleted at any time without prior notice.
Dissemination of this information without the expressed written consent of the Public Affairs Office, Tulsa District U.S. Army Corps of Engineers is strictly prohibited.
These data are gathered electronically and, as presented, have not undergone any form of quality control. These data are not guaranteed to be valid or correct.
Go to home page.
Go to station list.

Upstream stations:

Downstream station:
Previous Day
Next Day
Current Day
    
SHEF ID:       MFDO2     Lake Hudson near Locust Grove, O
STATION TYPE:  RESERVOIR

               PRECIP ELEVATION   STORAGE   TW-ELEV    INFLOW   RELEASE  AIR-TEMP  WIND-DIRWIND-SPEED REL-HUMID SOLAR-RAD   VOLTAGE  BAT-LOAD
                   in        ft     ac-ft        ft       cfs       cfs         F       deg       mph         %      W/m2      volt      volt
              Ccp-Rev   Ccp-Rev   Ccp-Rev   Ccp-Rev  Regi-Rev  Regi-Rev   Ccp-Rev   Ccp-Rev   Ccp-Rev   Ccp-Rev   Ccp-Rev   Ccp-Rev   Ccp-Rev
(US/Central)
03/07 00:00      0.00    619.95    210744    560.61     11656         0     36.32    313.60      6.70     55.99      0.00     12.16     11.77
03/07 01:00      0.00    620.03    211642    560.51     10910         0     34.95    308.80      5.80     59.84      0.00     12.15     11.70
03/07 02:00      0.00    620.14    212895    560.43     11778         0     34.47    300.00      5.40     63.72      0.00     12.14     11.70
03/07 03:00      0.00    620.23    213920    560.36     12645         0     34.38    312.90      6.80     62.90      0.00     12.14     11.70
03/07 04:00      0.00    620.32    214945    560.29     11196         0     33.87    312.50      6.50     65.52      0.00     12.13     11.70
03/07 05:00      0.00    620.41    215970    560.22     13158         0     33.42    311.70      6.30     68.20      0.00     12.12     11.70
03/07 06:00      0.00    620.35    215286    566.49     14239     11880     33.24    309.90      5.80     68.89      0.00     12.12     11.70
03/07 07:00      0.00    620.30    214717    569.03     15650     31860     33.58    313.60      5.90     67.66      0.00     12.11     11.70
03/07 08:00      0.00    620.20    213578    570.43     15971     31590     33.75    308.90      6.20     67.67     25.10     12.11     11.70
03/07 09:00      0.00    620.11    212553    571.00     16996     31860     34.65    321.20      6.70     63.69    120.30     12.10     11.70
03/07 10:00      0.00    619.98    211078    571.16     17986     31860     35.58    327.50      6.50     59.95    249.10     12.10     11.70
03/07 11:00      0.00    619.81    209189    571.18     14425     31590     37.06    301.50      6.80     58.29    196.60     12.11     11.70
03/07 12:00      0.00    620.04    211756    565.73     12463      1620     39.31    292.60      6.40     54.35     27.40     12.11     11.70
03/07 13:00      0.00    620.02    211528    563.78     12692         0     41.38    302.10      8.30     49.17     19.40     12.85     11.61
03/07 14:00      0.00    620.09    212325    562.87     13701         0     43.88    299.20      8.10     44.83     17.40     12.33     12.33
03/07 15:00      0.00    620.20    213578    562.32      9236         0     46.38    292.40      8.40     40.16     20.30     12.27     11.86
03/07 16:00      0.00    620.30    214717    561.90      9236         0     48.65    302.80      8.10     36.20     18.00     12.23     11.86
03/07 17:00      0.00    620.36    215400    561.60     12575         0     50.47    299.50      7.70     30.96     11.80     12.22     11.77
03/07 18:00      0.00    620.31    214831    566.09     14813      6210     50.85    305.10      7.60     28.33      1.00     12.20     11.77
03/07 19:00      0.00    620.31    214831    569.02     14018     31860     49.57    299.50      4.10     32.02      0.00     12.19     11.77
03/07 20:00      0.00    620.23    213920    570.43     17951     31860     46.40    287.00      1.00     44.90      0.00     12.17     11.77
03/07 21:00      0.00    620.07    212097    570.93     17951     31860     43.23    245.70      0.30     52.00      0.00     12.15     11.70
03/07 22:00      0.00    620.17    213236    567.40     13785     14850     40.57    196.80      2.00     43.61      0.00     12.13     11.70
03/07 23:00      0.00    620.16    213122    564.39      9893         0     38.55    185.80      1.10     51.89      0.00     12.12     11.70